sensor_id;sensor_type;location;lat;lon;timestamp;P1;durP1;ratioP1;P2;durP2;ratioP2
47273;SDS011;33007;49.082;19.306;2022-10-16T00:02:23;12.25;;;10.00;;
47273;SDS011;33007;49.082;19.306;2022-10-16T00:04:49;13.95;;;9.75;;
47273;SDS011;33007;49.082;19.306;2022-10-16T00:07:15;12.20;;;10.48;;
47273;SDS011;33007;49.082;19.306;2022-10-16T00:09:41;11.13;;;9.32;;
47273;SDS011;33007;49.082;19.306;2022-10-16T00:12:06;12.68;;;10.43;;
47273;SDS011;33007;49.082;19.306;2022-10-16T00:14:32;12.55;;;10.25;;
47273;SDS011;33007;49.082;19.306;2022-10-16T00:16:58;14.77;;;10.57;;
47273;SDS011;33007;49.082;19.306;2022-10-16T00:19:24;13.38;;;10.23;;
47273;SDS011;33007;49.082;19.306;2022-10-16T00:21:50;13.57;;;9.93;;
47273;SDS011;33007;49.082;19.306;2022-10-16T00:24:15;13.15;;;9.93;;
47273;SDS011;33007;49.082;19.306;2022-10-16T00:26:41;12.18;;;10.02;;
47273;SDS011;33007;49.082;19.306;2022-10-16T00:29:07;15.05;;;10.75;;
47273;SDS011;33007;49.082;19.306;2022-10-16T00:31:33;14.20;;;11.05;;
47273;SDS011;33007;49.082;19.306;2022-10-16T00:33:59;13.82;;;10.05;;
47273;SDS011;33007;49.082;19.306;2022-10-16T00:36:25;15.15;;;10.35;;
47273;SDS011;33007;49.082;19.306;2022-10-16T00:38:52;12.50;;;9.90;;
47273;SDS011;33007;49.082;19.306;2022-10-16T00:41:20;14.23;;;10.90;;
47273;SDS011;33007;49.082;19.306;2022-10-16T00:43:49;13.80;;;10.18;;
47273;SDS011;33007;49.082;19.306;2022-10-16T00:49:05;13.32;;;10.05;;
47273;SDS011;33007;49.082;19.306;2022-10-16T00:51:46;12.07;;;9.63;;
47273;SDS011;33007;49.082;19.306;2022-10-16T00:54:22;13.23;;;9.77;;
47273;SDS011;33007;49.082;19.306;2022-10-16T00:56:51;14.45;;;9.80;;
47273;SDS011;33007;49.082;19.306;2022-10-16T00:59:23;15.02;;;9.75;;
47273;SDS011;33007;49.082;19.306;2022-10-16T01:01:51;15.90;;;10.57;;
47273;SDS011;33007;49.082;19.306;2022-10-16T01:04:18;16.77;;;9.85;;
47273;SDS011;33007;49.082;19.306;2022-10-16T01:09:24;11.32;;;10.13;;
47273;SDS011;33007;49.082;19.306;2022-10-16T01:12:15;13.15;;;10.95;;
47273;SDS011;33007;49.082;19.306;2022-10-16T01:14:56;13.68;;;10.05;;
47273;SDS011;33007;49.082;19.306;2022-10-16T01:28:28;12.00;;;10.70;;
47273;SDS011;33007;49.082;19.306;2022-10-16T01:31:01;15.43;;;11.35;;
47273;SDS011;33007;49.082;19.306;2022-10-16T01:33:30;14.27;;;10.73;;
47273;SDS011;33007;49.082;19.306;2022-10-16T01:36:10;15.10;;;11.30;;
47273;SDS011;33007;49.082;19.306;2022-10-16T01:38:43;16.25;;;10.68;;
47273;SDS011;33007;49.082;19.306;2022-10-16T01:41:23;14.10;;;10.30;;
47273;SDS011;33007;49.082;19.306;2022-10-16T01:46:26;15.07;;;10.00;;
47273;SDS011;33007;49.082;19.306;2022-10-16T01:48:55;13.82;;;10.57;;
47273;SDS011;33007;49.082;19.306;2022-10-16T01:51:21;14.88;;;10.75;;
47273;SDS011;33007;49.082;19.306;2022-10-16T01:53:51;14.75;;;10.57;;
47273;SDS011;33007;49.082;19.306;2022-10-16T01:56:20;13.20;;;10.23;;
47273;SDS011;33007;49.082;19.306;2022-10-16T01:58:51;14.85;;;10.48;;
47273;SDS011;33007;49.082;19.306;2022-10-16T02:01:21;14.25;;;10.85;;
47273;SDS011;33007;49.082;19.306;2022-10-16T02:03:51;13.63;;;10.63;;
47273;SDS011;33007;49.082;19.306;2022-10-16T02:06:20;15.00;;;10.00;;
47273;SDS011;33007;49.082;19.306;2022-10-16T02:08:47;14.88;;;10.65;;
47273;SDS011;33007;49.082;19.306;2022-10-16T02:11:13;14.07;;;11.27;;
47273;SDS011;33007;49.082;19.306;2022-10-16T02:13:41;17.65;;;11.07;;
47273;SDS011;33007;49.082;19.306;2022-10-16T02:16:12;12.95;;;10.75;;
47273;SDS011;33007;49.082;19.306;2022-10-16T02:18:40;13.88;;;10.50;;
47273;SDS011;33007;49.082;19.306;2022-10-16T02:21:29;18.20;;;10.68;;
47273;SDS011;33007;49.082;19.306;2022-10-16T02:29:33;20.83;;;12.40;;
47273;SDS011;33007;49.082;19.306;2022-10-16T02:32:06;14.52;;;11.88;;
47273;SDS011;33007;49.082;19.306;2022-10-16T02:34:35;18.58;;;11.60;;
47273;SDS011;33007;49.082;19.306;2022-10-16T02:37:03;16.65;;;11.45;;
47273;SDS011;33007;49.082;19.306;2022-10-16T02:39:30;14.82;;;11.93;;
47273;SDS011;33007;49.082;19.306;2022-10-16T02:41:56;16.85;;;11.75;;
47273;SDS011;33007;49.082;19.306;2022-10-16T02:44:22;16.67;;;12.02;;
47273;SDS011;33007;49.082;19.306;2022-10-16T02:46:48;20.52;;;12.10;;
47273;SDS011;33007;49.082;19.306;2022-10-16T02:49:13;14.77;;;11.75;;
47273;SDS011;33007;49.082;19.306;2022-10-16T02:51:39;15.48;;;12.20;;
47273;SDS011;33007;49.082;19.306;2022-10-16T02:54:05;15.23;;;11.70;;
47273;SDS011;33007;49.082;19.306;2022-10-16T02:56:30;16.63;;;11.95;;
47273;SDS011;33007;49.082;19.306;2022-10-16T02:58:56;15.88;;;12.13;;
47273;SDS011;33007;49.082;19.306;2022-10-16T03:01:22;15.82;;;11.70;;
47273;SDS011;33007;49.082;19.306;2022-10-16T03:03:48;15.80;;;11.82;;
47273;SDS011;33007;49.082;19.306;2022-10-16T03:06:15;16.25;;;12.13;;
47273;SDS011;33007;49.082;19.306;2022-10-16T03:08:41;15.85;;;12.38;;
47273;SDS011;33007;49.082;19.306;2022-10-16T03:11:06;15.07;;;12.48;;
47273;SDS011;33007;49.082;19.306;2022-10-16T03:13:32;16.75;;;13.07;;
47273;SDS011;33007;49.082;19.306;2022-10-16T03:15:58;15.70;;;12.75;;
47273;SDS011;33007;49.082;19.306;2022-10-16T03:18:24;15.20;;;12.43;;
47273;SDS011;33007;49.082;19.306;2022-10-16T03:20:49;15.57;;;12.57;;
47273;SDS011;33007;49.082;19.306;2022-10-16T03:23:15;15.38;;;13.32;;
47273;SDS011;33007;49.082;19.306;2022-10-16T03:25:41;15.90;;;13.55;;
47273;SDS011;33007;49.082;19.306;2022-10-16T03:28:06;17.33;;;13.15;;
47273;SDS011;33007;49.082;19.306;2022-10-16T03:30:32;16.00;;;13.25;;
47273;SDS011;33007;49.082;19.306;2022-10-16T03:32:58;16.10;;;12.70;;
47273;SDS011;33007;49.082;19.306;2022-10-16T03:35:24;14.38;;;12.32;;
47273;SDS011;33007;49.082;19.306;2022-10-16T03:37:50;18.13;;;13.07;;
47273;SDS011;33007;49.082;19.306;2022-10-16T03:40:16;18.08;;;13.05;;
47273;SDS011;33007;49.082;19.306;2022-10-16T03:42:42;17.33;;;13.52;;
47273;SDS011;33007;49.082;19.306;2022-10-16T03:45:09;15.35;;;12.18;;
47273;SDS011;33007;49.082;19.306;2022-10-16T03:47:35;19.13;;;12.90;;
47273;SDS011;33007;49.082;19.306;2022-10-16T03:50:02;18.60;;;12.70;;
47273;SDS011;33007;49.082;19.306;2022-10-16T03:52:28;15.10;;;12.80;;
47273;SDS011;33007;49.082;19.306;2022-10-16T03:54:54;18.08;;;12.48;;
47273;SDS011;33007;49.082;19.306;2022-10-16T03:57:20;15.73;;;12.45;;
47273;SDS011;33007;49.082;19.306;2022-10-16T03:59:46;18.60;;;12.93;;
47273;SDS011;33007;49.082;19.306;2022-10-16T04:02:12;18.90;;;12.93;;
47273;SDS011;33007;49.082;19.306;2022-10-16T04:04:39;23.98;;;14.02;;
47273;SDS011;33007;49.082;19.306;2022-10-16T04:07:04;49.03;;;14.63;;
47273;SDS011;33007;49.082;19.306;2022-10-16T04:09:30;27.23;;;14.10;;
47273;SDS011;33007;49.082;19.306;2022-10-16T04:11:56;16.10;;;13.48;;
47273;SDS011;33007;49.082;19.306;2022-10-16T04:14:21;35.92;;;13.90;;
47273;SDS011;33007;49.082;19.306;2022-10-16T04:16:47;21.80;;;13.60;;
47273;SDS011;33007;49.082;19.306;2022-10-16T04:19:13;17.50;;;13.30;;
47273;SDS011;33007;49.082;19.306;2022-10-16T04:21:39;19.92;;;13.15;;
47273;SDS011;33007;49.082;19.306;2022-10-16T04:24:05;16.75;;;13.68;;
47273;SDS011;33007;49.082;19.306;2022-10-16T04:26:31;17.95;;;13.13;;
47273;SDS011;33007;49.082;19.306;2022-10-16T04:28:56;17.90;;;13.57;;
47273;SDS011;33007;49.082;19.306;2022-10-16T04:31:22;14.40;;;12.93;;
47273;SDS011;33007;49.082;19.306;2022-10-16T04:33:48;16.23;;;13.25;;
47273;SDS011;33007;49.082;19.306;2022-10-16T04:36:14;16.10;;;12.90;;
47273;SDS011;33007;49.082;19.306;2022-10-16T04:38:40;16.20;;;13.68;;
47273;SDS011;33007;49.082;19.306;2022-10-16T04:41:06;16.92;;;13.63;;
47273;SDS011;33007;49.082;19.306;2022-10-16T04:43:32;17.13;;;13.32;;
47273;SDS011;33007;49.082;19.306;2022-10-16T04:45:59;15.40;;;13.20;;
47273;SDS011;33007;49.082;19.306;2022-10-16T04:48:25;17.05;;;13.63;;
47273;SDS011;33007;49.082;19.306;2022-10-16T04:50:51;27.15;;;14.00;;
47273;SDS011;33007;49.082;19.306;2022-10-16T04:53:17;18.52;;;12.77;;
47273;SDS011;33007;49.082;19.306;2022-10-16T04:55:43;24.25;;;13.00;;
47273;SDS011;33007;49.082;19.306;2022-10-16T04:58:09;17.02;;;11.90;;
47273;SDS011;33007;49.082;19.306;2022-10-16T05:00:35;15.20;;;12.23;;
47273;SDS011;33007;49.082;19.306;2022-10-16T05:03:03;13.55;;;11.80;;
47273;SDS011;33007;49.082;19.306;2022-10-16T05:05:32;15.75;;;11.95;;
47273;SDS011;33007;49.082;19.306;2022-10-16T05:07:58;14.07;;;11.50;;
47273;SDS011;33007;49.082;19.306;2022-10-16T05:10:25;19.42;;;11.27;;
47273;SDS011;33007;49.082;19.306;2022-10-16T05:12:50;16.10;;;11.35;;
47273;SDS011;33007;49.082;19.306;2022-10-16T05:15:16;15.77;;;12.18;;
47273;SDS011;33007;49.082;19.306;2022-10-16T05:17:43;15.88;;;11.98;;
47273;SDS011;33007;49.082;19.306;2022-10-16T05:20:09;20.90;;;12.02;;
47273;SDS011;33007;49.082;19.306;2022-10-16T05:22:36;15.50;;;11.70;;
47273;SDS011;33007;49.082;19.306;2022-10-16T05:25:02;17.80;;;12.30;;
47273;SDS011;33007;49.082;19.306;2022-10-16T05:27:28;15.77;;;12.38;;
47273;SDS011;33007;49.082;19.306;2022-10-16T05:29:53;14.65;;;11.65;;
47273;SDS011;33007;49.082;19.306;2022-10-16T05:32:19;15.52;;;12.18;;
47273;SDS011;33007;49.082;19.306;2022-10-16T05:34:45;15.15;;;12.13;;
47273;SDS011;33007;49.082;19.306;2022-10-16T05:37:11;16.15;;;11.93;;
47273;SDS011;33007;49.082;19.306;2022-10-16T05:39:38;16.15;;;11.95;;
47273;SDS011;33007;49.082;19.306;2022-10-16T05:42:04;14.80;;;11.90;;
47273;SDS011;33007;49.082;19.306;2022-10-16T05:44:31;15.27;;;11.90;;
47273;SDS011;33007;49.082;19.306;2022-10-16T05:46:56;14.52;;;12.02;;
47273;SDS011;33007;49.082;19.306;2022-10-16T05:49:22;15.80;;;12.20;;
47273;SDS011;33007;49.082;19.306;2022-10-16T05:51:48;15.15;;;12.27;;
47273;SDS011;33007;49.082;19.306;2022-10-16T05:54:14;18.25;;;12.70;;
47273;SDS011;33007;49.082;19.306;2022-10-16T05:56:40;17.25;;;13.20;;
47273;SDS011;33007;49.082;19.306;2022-10-16T05:59:06;17.67;;;12.90;;
47273;SDS011;33007;49.082;19.306;2022-10-16T06:01:32;17.23;;;12.57;;
47273;SDS011;33007;49.082;19.306;2022-10-16T06:03:58;15.95;;;12.85;;
47273;SDS011;33007;49.082;19.306;2022-10-16T06:06:25;21.75;;;13.25;;
47273;SDS011;33007;49.082;19.306;2022-10-16T06:08:53;15.70;;;12.75;;
47273;SDS011;33007;49.082;19.306;2022-10-16T06:11:21;15.13;;;12.80;;
47273;SDS011;33007;49.082;19.306;2022-10-16T06:13:49;17.42;;;13.48;;
47273;SDS011;33007;49.082;19.306;2022-10-16T06:16:16;18.92;;;12.88;;
47273;SDS011;33007;49.082;19.306;2022-10-16T06:18:42;18.63;;;14.43;;
47273;SDS011;33007;49.082;19.306;2022-10-16T06:21:12;18.45;;;14.00;;
47273;SDS011;33007;49.082;19.306;2022-10-16T06:23:41;15.95;;;14.02;;
47273;SDS011;33007;49.082;19.306;2022-10-16T06:26:08;17.30;;;14.73;;
47273;SDS011;33007;49.082;19.306;2022-10-16T06:28:35;15.15;;;13.38;;
47273;SDS011;33007;49.082;19.306;2022-10-16T06:31:02;20.60;;;14.70;;
47273;SDS011;33007;49.082;19.306;2022-10-16T06:33:30;20.80;;;14.65;;
47273;SDS011;33007;49.082;19.306;2022-10-16T06:36:06;20.98;;;15.57;;
47273;SDS011;33007;49.082;19.306;2022-10-16T06:38:34;22.45;;;15.10;;
47273;SDS011;33007;49.082;19.306;2022-10-16T06:41:00;17.00;;;14.70;;
47273;SDS011;33007;49.082;19.306;2022-10-16T06:43:28;20.33;;;15.52;;
47273;SDS011;33007;49.082;19.306;2022-10-16T06:45:58;20.25;;;15.55;;
47273;SDS011;33007;49.082;19.306;2022-10-16T06:48:26;20.40;;;14.85;;
47273;SDS011;33007;49.082;19.306;2022-10-16T06:50:59;21.90;;;14.75;;
47273;SDS011;33007;49.082;19.306;2022-10-16T06:53:25;19.10;;;15.25;;
47273;SDS011;33007;49.082;19.306;2022-10-16T06:55:52;18.98;;;15.70;;
47273;SDS011;33007;49.082;19.306;2022-10-16T06:58:18;20.40;;;15.73;;
47273;SDS011;33007;49.082;19.306;2022-10-16T07:00:44;17.85;;;14.32;;
47273;SDS011;33007;49.082;19.306;2022-10-16T07:03:10;20.10;;;14.45;;
47273;SDS011;33007;49.082;19.306;2022-10-16T07:05:37;25.35;;;20.02;;
47273;SDS011;33007;49.082;19.306;2022-10-16T07:08:07;22.50;;;18.60;;
47273;SDS011;33007;49.082;19.306;2022-10-16T07:10:34;16.90;;;13.30;;
47273;SDS011;33007;49.082;19.306;2022-10-16T07:13:00;17.38;;;13.70;;
47273;SDS011;33007;49.082;19.306;2022-10-16T07:15:26;16.95;;;13.55;;
47273;SDS011;33007;49.082;19.306;2022-10-16T07:17:52;14.13;;;12.63;;
47273;SDS011;33007;49.082;19.306;2022-10-16T07:20:18;17.48;;;12.45;;
47273;SDS011;33007;49.082;19.306;2022-10-16T07:22:44;14.80;;;12.13;;
47273;SDS011;33007;49.082;19.306;2022-10-16T07:25:11;15.43;;;11.70;;
47273;SDS011;33007;49.082;19.306;2022-10-16T07:27:37;15.18;;;11.05;;
47273;SDS011;33007;49.082;19.306;2022-10-16T07:30:03;14.73;;;11.20;;
47273;SDS011;33007;49.082;19.306;2022-10-16T07:32:30;15.77;;;11.93;;
47273;SDS011;33007;49.082;19.306;2022-10-16T07:34:56;12.40;;;11.10;;
47273;SDS011;33007;49.082;19.306;2022-10-16T07:37:22;14.63;;;11.75;;
47273;SDS011;33007;49.082;19.306;2022-10-16T07:39:48;17.20;;;12.00;;
47273;SDS011;33007;49.082;19.306;2022-10-16T07:42:14;15.15;;;11.25;;
47273;SDS011;33007;49.082;19.306;2022-10-16T07:44:40;12.40;;;11.10;;
47273;SDS011;33007;49.082;19.306;2022-10-16T07:47:06;13.05;;;11.50;;
47273;SDS011;33007;49.082;19.306;2022-10-16T07:49:32;16.10;;;11.75;;
47273;SDS011;33007;49.082;19.306;2022-10-16T07:51:58;12.80;;;10.95;;
47273;SDS011;33007;49.082;19.306;2022-10-16T07:54:24;15.73;;;11.35;;
47273;SDS011;33007;49.082;19.306;2022-10-16T07:56:50;12.27;;;10.98;;
47273;SDS011;33007;49.082;19.306;2022-10-16T07:59:15;15.18;;;10.73;;
47273;SDS011;33007;49.082;19.306;2022-10-16T08:01:42;14.00;;;9.90;;
47273;SDS011;33007;49.082;19.306;2022-10-16T08:04:07;14.63;;;11.07;;
47273;SDS011;33007;49.082;19.306;2022-10-16T08:06:38;15.80;;;11.52;;
47273;SDS011;33007;49.082;19.306;2022-10-16T08:09:05;13.13;;;11.00;;
47273;SDS011;33007;49.082;19.306;2022-10-16T08:11:33;13.23;;;11.13;;
47273;SDS011;33007;49.082;19.306;2022-10-16T08:13:59;11.55;;;10.20;;
47273;SDS011;33007;49.082;19.306;2022-10-16T08:16:25;12.10;;;10.77;;
47273;SDS011;33007;49.082;19.306;2022-10-16T08:18:51;14.15;;;10.77;;
47273;SDS011;33007;49.082;19.306;2022-10-16T08:21:17;12.82;;;11.10;;
47273;SDS011;33007;49.082;19.306;2022-10-16T08:23:45;12.20;;;10.88;;
47273;SDS011;33007;49.082;19.306;2022-10-16T08:26:11;17.92;;;11.75;;
47273;SDS011;33007;49.082;19.306;2022-10-16T08:28:38;17.75;;;11.82;;
47273;SDS011;33007;49.082;19.306;2022-10-16T08:31:08;15.50;;;11.07;;
47273;SDS011;33007;49.082;19.306;2022-10-16T08:33:40;14.60;;;11.45;;
47273;SDS011;33007;49.082;19.306;2022-10-16T08:36:09;13.20;;;10.57;;
47273;SDS011;33007;49.082;19.306;2022-10-16T08:38:35;16.20;;;11.05;;
47273;SDS011;33007;49.082;19.306;2022-10-16T08:46:37;17.08;;;11.23;;
47273;SDS011;33007;49.082;19.306;2022-10-16T08:49:10;14.85;;;11.00;;
47273;SDS011;33007;49.082;19.306;2022-10-16T08:51:41;14.32;;;10.70;;
47273;SDS011;33007;49.082;19.306;2022-10-16T08:56:45;15.82;;;11.38;;
47273;SDS011;33007;49.082;19.306;2022-10-16T08:59:11;14.50;;;10.38;;
47273;SDS011;33007;49.082;19.306;2022-10-16T09:01:41;11.63;;;9.95;;
47273;SDS011;33007;49.082;19.306;2022-10-16T09:12:18;17.63;;;11.45;;
47273;SDS011;33007;49.082;19.306;2022-10-16T09:17:42;15.18;;;10.88;;
47273;SDS011;33007;49.082;19.306;2022-10-16T09:25:30;11.30;;;8.90;;
47273;SDS011;33007;49.082;19.306;2022-10-16T09:27:57;10.43;;;9.13;;
47273;SDS011;33007;49.082;19.306;2022-10-16T09:30:25;12.90;;;8.57;;
47273;SDS011;33007;49.082;19.306;2022-10-16T09:32:53;10.90;;;8.20;;
47273;SDS011;33007;49.082;19.306;2022-10-16T09:35:20;13.02;;;8.75;;
47273;SDS011;33007;49.082;19.306;2022-10-16T09:37:52;10.80;;;8.40;;
47273;SDS011;33007;49.082;19.306;2022-10-16T09:40:26;11.38;;;7.50;;
47273;SDS011;33007;49.082;19.306;2022-10-16T09:45:58;12.57;;;9.32;;
47273;SDS011;33007;49.082;19.306;2022-10-16T09:48:46;8.82;;;7.80;;
47273;SDS011;33007;49.082;19.306;2022-10-16T09:51:35;14.45;;;7.30;;
47273;SDS011;33007;49.082;19.306;2022-10-16T09:54:01;11.43;;;7.40;;
47273;SDS011;33007;49.082;19.306;2022-10-16T09:56:37;10.85;;;7.85;;
47273;SDS011;33007;49.082;19.306;2022-10-16T09:59:13;13.30;;;7.75;;
47273;SDS011;33007;49.082;19.306;2022-10-16T10:01:40;10.32;;;7.50;;
47273;SDS011;33007;49.082;19.306;2022-10-16T10:04:08;11.77;;;7.40;;
47273;SDS011;33007;49.082;19.306;2022-10-16T10:06:36;11.90;;;7.40;;
47273;SDS011;33007;49.082;19.306;2022-10-16T10:09:16;9.70;;;7.43;;
47273;SDS011;33007;49.082;19.306;2022-10-16T10:19:43;8.77;;;6.78;;
47273;SDS011;33007;49.082;19.306;2022-10-16T10:22:20;13.55;;;6.32;;
47273;SDS011;33007;49.082;19.306;2022-10-16T10:25:00;8.95;;;5.90;;
47273;SDS011;33007;49.082;19.306;2022-10-16T10:30:42;8.77;;;5.93;;
47273;SDS011;33007;49.082;19.306;2022-10-16T10:36:29;8.65;;;5.88;;
47273;SDS011;33007;49.082;19.306;2022-10-16T10:46:57;8.52;;;6.60;;
47273;SDS011;33007;49.082;19.306;2022-10-16T11:09:18;11.05;;;7.25;;
47273;SDS011;33007;49.082;19.306;2022-10-16T11:11:56;9.43;;;7.38;;
47273;SDS011;33007;49.082;19.306;2022-10-16T11:14:24;10.35;;;7.65;;
47273;SDS011;33007;49.082;19.306;2022-10-16T11:19:39;10.68;;;7.75;;
47273;SDS011;33007;49.082;19.306;2022-10-16T11:22:15;9.10;;;7.85;;
47273;SDS011;33007;49.082;19.306;2022-10-16T11:24:53;11.35;;;7.90;;
47273;SDS011;33007;49.082;19.306;2022-10-16T11:27:40;11.38;;;7.35;;
47273;SDS011;33007;49.082;19.306;2022-10-16T11:30:12;11.23;;;7.80;;
47273;SDS011;33007;49.082;19.306;2022-10-16T11:32:49;13.32;;;7.65;;
47273;SDS011;33007;49.082;19.306;2022-10-16T11:46:39;8.75;;;7.63;;
47273;SDS011;33007;49.082;19.306;2022-10-16T11:49:21;12.02;;;7.20;;
47273;SDS011;33007;49.082;19.306;2022-10-16T11:52:05;8.48;;;7.47;;
47273;SDS011;33007;49.082;19.306;2022-10-16T11:57:29;8.90;;;7.35;;
47273;SDS011;33007;49.082;19.306;2022-10-16T12:00:01;8.50;;;6.95;;
47273;SDS011;33007;49.082;19.306;2022-10-16T12:05:09;9.32;;;7.05;;
47273;SDS011;33007;49.082;19.306;2022-10-16T12:08:12;10.00;;;7.35;;
47273;SDS011;33007;49.082;19.306;2022-10-16T12:10:40;24.15;;;8.73;;
47273;SDS011;33007;49.082;19.306;2022-10-16T12:16:03;9.93;;;7.07;;
47273;SDS011;33007;49.082;19.306;2022-10-16T12:18:45;8.75;;;7.25;;
47273;SDS011;33007;49.082;19.306;2022-10-16T12:21:12;9.73;;;6.88;;
47273;SDS011;33007;49.082;19.306;2022-10-16T12:23:56;7.90;;;6.90;;
47273;SDS011;33007;49.082;19.306;2022-10-16T12:26:33;13.57;;;7.07;;
47273;SDS011;33007;49.082;19.306;2022-10-16T12:29:13;7.72;;;6.90;;
47273;SDS011;33007;49.082;19.306;2022-10-16T12:31:47;11.23;;;7.30;;
47273;SDS011;33007;49.082;19.306;2022-10-16T12:34:27;8.80;;;7.25;;
47273;SDS011;33007;49.082;19.306;2022-10-16T12:36:55;24.20;;;7.38;;
47273;SDS011;33007;49.082;19.306;2022-10-16T12:39:32;9.43;;;7.38;;
47273;SDS011;33007;49.082;19.306;2022-10-16T12:42:02;17.38;;;6.95;;
47273;SDS011;33007;49.082;19.306;2022-10-16T12:44:40;11.70;;;7.00;;
47273;SDS011;33007;49.082;19.306;2022-10-16T12:47:18;10.85;;;7.18;;
47273;SDS011;33007;49.082;19.306;2022-10-16T12:49:50;9.98;;;6.80;;
47273;SDS011;33007;49.082;19.306;2022-10-16T12:54:58;33.78;;;8.13;;
47273;SDS011;33007;49.082;19.306;2022-10-16T13:00:38;8.75;;;6.38;;
47273;SDS011;33007;49.082;19.306;2022-10-16T13:13:49;8.37;;;5.93;;
47273;SDS011;33007;49.082;19.306;2022-10-16T13:27:38;10.05;;;6.22;;
47273;SDS011;33007;49.082;19.306;2022-10-16T13:30:18;11.50;;;6.30;;
47273;SDS011;33007;49.082;19.306;2022-10-16T13:32:47;7.50;;;6.22;;
47273;SDS011;33007;49.082;19.306;2022-10-16T13:35:23;16.38;;;7.05;;
47273;SDS011;33007;49.082;19.306;2022-10-16T13:37:50;8.65;;;6.45;;
47273;SDS011;33007;49.082;19.306;2022-10-16T13:40:27;14.27;;;7.45;;
47273;SDS011;33007;49.082;19.306;2022-10-16T13:42:53;24.67;;;7.93;;
47273;SDS011;33007;49.082;19.306;2022-10-16T13:45:20;17.30;;;7.53;;
47273;SDS011;33007;49.082;19.306;2022-10-16T13:47:47;10.07;;;6.90;;
47273;SDS011;33007;49.082;19.306;2022-10-16T13:50:14;9.38;;;6.63;;
47273;SDS011;33007;49.082;19.306;2022-10-16T13:52:41;8.02;;;6.95;;
47273;SDS011;33007;49.082;19.306;2022-10-16T13:55:11;11.13;;;6.70;;
47273;SDS011;33007;49.082;19.306;2022-10-16T13:57:38;10.65;;;7.15;;
47273;SDS011;33007;49.082;19.306;2022-10-16T14:00:16;12.52;;;7.22;;
47273;SDS011;33007;49.082;19.306;2022-10-16T14:02:43;19.10;;;7.83;;
47273;SDS011;33007;49.082;19.306;2022-10-16T14:05:09;8.18;;;7.30;;
47273;SDS011;33007;49.082;19.306;2022-10-16T14:07:35;11.75;;;7.20;;
47273;SDS011;33007;49.082;19.306;2022-10-16T14:10:06;15.27;;;7.60;;
47273;SDS011;33007;49.082;19.306;2022-10-16T14:12:44;10.23;;;7.30;;
47273;SDS011;33007;49.082;19.306;2022-10-16T14:15:16;22.25;;;8.07;;
47273;SDS011;33007;49.082;19.306;2022-10-16T14:17:44;11.18;;;7.30;;
47273;SDS011;33007;49.082;19.306;2022-10-16T14:20:14;8.80;;;7.30;;
47273;SDS011;33007;49.082;19.306;2022-10-16T14:22:41;9.23;;;7.03;;
47273;SDS011;33007;49.082;19.306;2022-10-16T14:30:34;11.05;;;7.63;;
47273;SDS011;33007;49.082;19.306;2022-10-16T14:33:02;10.65;;;7.50;;
47273;SDS011;33007;49.082;19.306;2022-10-16T14:35:34;10.32;;;7.80;;
47273;SDS011;33007;49.082;19.306;2022-10-16T14:38:02;11.20;;;7.70;;
47273;SDS011;33007;49.082;19.306;2022-10-16T14:40:31;11.70;;;8.40;;
47273;SDS011;33007;49.082;19.306;2022-10-16T14:42:58;9.13;;;8.07;;
47273;SDS011;33007;49.082;19.306;2022-10-16T14:45:29;11.65;;;8.57;;
47273;SDS011;33007;49.082;19.306;2022-10-16T14:47:58;13.30;;;8.95;;
47273;SDS011;33007;49.082;19.306;2022-10-16T14:50:30;12.43;;;8.30;;
47273;SDS011;33007;49.082;19.306;2022-10-16T14:52:56;11.20;;;8.40;;
47273;SDS011;33007;49.082;19.306;2022-10-16T14:55:22;8.80;;;7.90;;
47273;SDS011;33007;49.082;19.306;2022-10-16T14:57:49;13.45;;;7.80;;
47273;SDS011;33007;49.082;19.306;2022-10-16T15:02:43;11.25;;;8.43;;
47273;SDS011;33007;49.082;19.306;2022-10-16T15:05:27;11.07;;;7.45;;
47273;SDS011;33007;49.082;19.306;2022-10-16T15:07:53;9.07;;;7.40;;
47273;SDS011;33007;49.082;19.306;2022-10-16T15:10:23;12.65;;;8.23;;
47273;SDS011;33007;49.082;19.306;2022-10-16T15:12:51;10.40;;;7.63;;
47273;SDS011;33007;49.082;19.306;2022-10-16T15:15:24;102.78;;;11.70;;
47273;SDS011;33007;49.082;19.306;2022-10-16T15:17:55;29.30;;;9.13;;
47273;SDS011;33007;49.082;19.306;2022-10-16T15:20:23;22.42;;;8.18;;
47273;SDS011;33007;49.082;19.306;2022-10-16T15:22:49;13.23;;;9.07;;
47273;SDS011;33007;49.082;19.306;2022-10-16T15:28:00;51.53;;;11.20;;
47273;SDS011;33007;49.082;19.306;2022-10-16T15:30:26;10.52;;;8.25;;
47273;SDS011;33007;49.082;19.306;2022-10-16T15:32:52;12.10;;;9.35;;
47273;SDS011;33007;49.082;19.306;2022-10-16T15:35:18;9.73;;;8.50;;
47273;SDS011;33007;49.082;19.306;2022-10-16T15:37:45;20.00;;;8.35;;
47273;SDS011;33007;49.082;19.306;2022-10-16T15:40:12;11.25;;;8.57;;
47273;SDS011;33007;49.082;19.306;2022-10-16T15:42:38;12.77;;;8.57;;
47273;SDS011;33007;49.082;19.306;2022-10-16T15:45:04;24.33;;;9.10;;
47273;SDS011;33007;49.082;19.306;2022-10-16T15:47:31;10.75;;;8.27;;
47273;SDS011;33007;49.082;19.306;2022-10-16T15:49:57;11.95;;;8.85;;
47273;SDS011;33007;49.082;19.306;2022-10-16T15:52:23;12.43;;;8.40;;
47273;SDS011;33007;49.082;19.306;2022-10-16T15:54:48;13.00;;;8.90;;
47273;SDS011;33007;49.082;19.306;2022-10-16T15:57:14;36.50;;;9.63;;
47273;SDS011;33007;49.082;19.306;2022-10-16T15:59:39;12.20;;;9.77;;
47273;SDS011;33007;49.082;19.306;2022-10-16T16:02:05;14.52;;;10.70;;
47273;SDS011;33007;49.082;19.306;2022-10-16T16:04:31;15.27;;;12.70;;
47273;SDS011;33007;49.082;19.306;2022-10-16T16:06:57;18.70;;;12.25;;
47273;SDS011;33007;49.082;19.306;2022-10-16T16:09:22;17.58;;;12.25;;
47273;SDS011;33007;49.082;19.306;2022-10-16T16:11:49;16.58;;;11.52;;
47273;SDS011;33007;49.082;19.306;2022-10-16T16:14:16;17.35;;;12.32;;
47273;SDS011;33007;49.082;19.306;2022-10-16T16:16:42;15.68;;;12.73;;
47273;SDS011;33007;49.082;19.306;2022-10-16T16:19:08;20.40;;;12.68;;
47273;SDS011;33007;49.082;19.306;2022-10-16T16:21:34;16.27;;;10.68;;
47273;SDS011;33007;49.082;19.306;2022-10-16T16:24:00;15.05;;;10.43;;
47273;SDS011;33007;49.082;19.306;2022-10-16T16:26:32;18.52;;;12.07;;
47273;SDS011;33007;49.082;19.306;2022-10-16T16:29:01;14.77;;;11.98;;
47273;SDS011;33007;49.082;19.306;2022-10-16T16:31:28;17.38;;;13.00;;
47273;SDS011;33007;49.082;19.306;2022-10-16T16:33:56;18.83;;;13.30;;
47273;SDS011;33007;49.082;19.306;2022-10-16T16:36:22;22.17;;;15.55;;
47273;SDS011;33007;49.082;19.306;2022-10-16T16:38:49;20.95;;;15.88;;
47273;SDS011;33007;49.082;19.306;2022-10-16T16:41:16;22.73;;;16.38;;
47273;SDS011;33007;49.082;19.306;2022-10-16T16:43:44;22.27;;;17.35;;
47273;SDS011;33007;49.082;19.306;2022-10-16T16:46:10;22.45;;;16.23;;
47273;SDS011;33007;49.082;19.306;2022-10-16T16:48:36;27.35;;;15.40;;
47273;SDS011;33007;49.082;19.306;2022-10-16T16:51:07;173.20;;;25.60;;
47273;SDS011;33007;49.082;19.306;2022-10-16T16:53:34;19.30;;;14.77;;
47273;SDS011;33007;49.082;19.306;2022-10-16T16:56:04;21.70;;;15.23;;
47273;SDS011;33007;49.082;19.306;2022-10-16T16:58:30;96.53;;;18.27;;